Hidden Timber, South Dakota
Current Conditions -  °F | °C
As of 12:52 PM on Friday 31 Oct 2014 (Local Time) from KVTN Reporting Station
Clear Clear  
Wind Chill: 29°   Ceiling: Unl
Heat Index: 38°   Visibility: 10mi
Dew Point: 17°   Wind: 16mph
Humidity: 43%   Direction: 160°SSE
Pressure: 30.45"   Gusts: NA
Location:  43.1909°N, 100.475°W
Report Text: KVTN 311752Z AUTO 16014KT 10SM CLR 03/M08 A3045 RMK AO2 SLP336 T00331083 10039 21072 58020
Loading
Personal Weather Stations






























Interactive Weather Map
Tropical Storm Tracking
New forecast layout! Learn more

10-Day Weather Forecast

Advertisements
Track Severe Weather on mobile